Aviation Digital Data Service (ADDS)

Output produced by METARs form (1731 UTC 22 February 2017)
found at http://aviationweather.gov/adds/metars/
 
KLCH 221728Z 2218/2318 36005KT P6SM SCT030 
     FM230200 VRB03KT P6SM SKC